Terminal Aerodrome Forecast
Issued by NWS

Home | Current Version | Previous Version | Text Only | Print | Product List | Glossary On
Versions: 1 2 3 4 5 6 7 8 9 10 11 12 13 14 15 16 17 18 19 20 21 22 23 24 25 26 27 28
000
FTUS43 KDLH 282200 AAA
TAFBRD
TAF AMD
KBRD 282211Z 2822/2918 19009KT 2SM -FZDZ BR OVC006
     FM290200 VRB03KT 3SM -FZDZSN OVC004
     FM290700 32018G26KT 5SM -SN BR SCT007 BKN015 OVC022=

USA.gov is the U.S. government's official web portal to all federal, state and local government web resources and services.